EPWR/WRO METAR and TAF weather

Enter ICAO airport designator
Station Type Date Time Source
EPWR METAR 2021/09/16 22:30 UTC NOAA

EPWR 162230Z 28006KT 9999 BKN048 16/14 Q1014


Station Type Date Time Source
EPWR Decoded METAR 2021/09/16 22:30 UTC NOAA

Wroclaw Ii, Poland (EPWR) 51-06N 016-53E 121M
Sep 16, 2021 - 06:30 PM EDT / 2021.09.16 2230 UTC
Wind: from the W (280 degrees) at 7 MPH (6 KT):0
Visibility: greater than 7 mile(s):0
Sky conditions: mostly cloudy
Temperature: 60 F (16 C)
Dew Point: 57 F (14 C)
Relative Humidity: 87%
Pressure (altimeter): 29.94 in. Hg (1014 hPa)
ob: EPWR 162230Z 28006KT 9999 BKN048 16/14 Q1014
cycle: 22

Station Type Date Time Source
EPWR TAF 2021/09/16 21:37 UTC NOAA

TAF EPWR 162030Z 1621/1721 26005KT 9999 BKN035
TEMPO 1621/1702 4000 SHRA BKN013 BKN020CB PROB40
TEMPO 1702/1707 2500 RA BR BKN007
TEMPO 1709/1715 30015G25KT BKN025TCU

Example: see airport list